Terminal Aerodrome Forecast
Issued by NWS Chicago, IL

Home | Current Version | Previous Version | Graphics & Text | Print | Product List | Glossary On
Versions: 1 2 3 4 5 6 7 8 9 10 11 12 13 14 15 16 17 18 19 20 21 22 23 24 25 26 27 28 29 30 31 32
000
FTUS43 KLOT 130900 AAA
TAFRFD
TAF AMD
KRFD 130907Z 1309/1406 VRB06KT P6SM SCT050 BKN250
     FM131200 21012KT P6SM SCT040 BKN250
     FM131800 14010KT P6SM VCSH BKN025CB PROB30 1319/1324 3SM -TSRA
      SCT007 OVC020CB
     FM140000 15012KT 4SM BR VCTS SCT007 BKN020CB
     FM140200 02015KT 4SM RA BR BKN010=

USA.gov is the U.S. government's official web portal to all federal, state and local government web resources and services.